Time;durP1;ratioP1;P1;durP2;ratioP2;P2;SDS_P1;SDS_P2;PMS_P1;PMS_P2;Temp;Humidity;BMP_temperature;BMP_pressure;BME280_temperature;BME280_humidity;BME280_pressure;Samples;Min_cycle;Max_cycle;Signal;HPM_P1;HPM_P2
2022/12/29 00:01:11;;;;;;;8.52;5.90;;;;;;;;;;5033063;28;20077;-60
2022/12/29 00:03:37;;;;;;;8.85;7.00;;;;;;;;;;5046750;28;20045;-60
2022/12/29 00:06:03;;;;;;;11.75;7.82;;;;;;;;;;5048578;28;20045;-60
2022/12/29 00:08:39;;;;;;;6.38;5.00;;;;;;;;;;5044576;28;20209;-60
2022/12/29 00:11:12;;;;;;;11.65;8.27;;;;;;;;;;5051867;28;20391;-60
2022/12/29 00:16:23;;;;;;;9.63;7.53;;;;;;;;;;5051883;28;20044;-60
2022/12/29 00:18:49;;;;;;;8.65;7.15;;;;;;;;;;5047788;28;20482;-60
2022/12/29 00:35:07;;;;;;;8.57;6.47;;;;;;;;;;5042591;28;20041;-61
2022/12/29 00:45:48;;;;;;;3.95;3.33;;;;;;;;;;5034457;28;20101;-59
2022/12/29 00:48:14;;;;;;;7.50;5.90;;;;;;;;;;5053520;28;20491;-59
2022/12/29 00:50:40;;;;;;;6.97;6.28;;;;;;;;;;5034053;28;21828;-60
2022/12/29 00:53:06;;;;;;;13.02;6.15;;;;;;;;;;5041639;28;20080;-59
2022/12/29 00:55:32;;;;;;;7.40;5.97;;;;;;;;;;5043825;28;20126;-59
2022/12/29 00:57:58;;;;;;;10.13;4.80;;;;;;;;;;5051993;28;20045;-59
2022/12/29 01:00:24;;;;;;;7.30;5.10;;;;;;;;;;5033501;28;20493;-59
2022/12/29 01:02:50;;;;;;;9.68;5.35;;;;;;;;;;5050066;28;20048;-60
2022/12/29 01:05:16;;;;;;;5.95;4.38;;;;;;;;;;5029911;28;20059;-59
2022/12/29 01:07:42;;;;;;;6.32;4.65;;;;;;;;;;5033853;28;20478;-60
2022/12/29 01:10:11;;;;;;;6.50;4.68;;;;;;;;;;5034866;28;20490;-59
2022/12/29 01:12:40;;;;;;;7.13;5.03;;;;;;;;;;5051908;28;20049;-60
2022/12/29 01:15:07;;;;;;;7.28;5.32;;;;;;;;;;5033779;28;20049;-60
2022/12/29 01:17:33;;;;;;;5.75;4.10;;;;;;;;;;5035735;28;20053;-59
2022/12/29 01:19:59;;;;;;;5.65;4.38;;;;;;;;;;5051722;28;20492;-59
2022/12/29 01:22:25;;;;;;;9.07;5.10;;;;;;;;;;5051318;28;20057;-59
2022/12/29 01:24:51;;;;;;;9.50;4.15;;;;;;;;;;5043211;28;20575;-59
2022/12/29 01:27:17;;;;;;;5.50;3.95;;;;;;;;;;5050424;28;20051;-59
2022/12/29 01:29:43;;;;;;;3.95;3.42;;;;;;;;;;5051237;28;20049;-60
2022/12/29 01:32:09;;;;;;;5.60;3.33;;;;;;;;;;5050633;28;20086;-59
2022/12/29 01:34:35;;;;;;;4.00;3.00;;;;;;;;;;5069158;28;20065;-60
2022/12/29 01:37:01;;;;;;;5.80;3.13;;;;;;;;;;5071511;28;20087;-60
2022/12/29 01:39:27;;;;;;;5.03;3.22;;;;;;;;;;5070545;28;20052;-60
2022/12/29 01:41:53;;;;;;;6.15;3.45;;;;;;;;;;5061960;28;20520;-59
2022/12/29 01:44:46;;;;;;;5.60;3.25;;;10.40;99.90;;;;;;5069005;28;20084;-59
2022/12/29 01:47:12;;;;;;;4.53;2.60;;;;;;;;;;5070752;28;20114;-59
2022/12/29 01:49:39;;;;;;;5.32;2.60;;;;;;;;;;5071791;28;20507;-60
2022/12/29 01:52:06;;;;;;;4.18;2.60;;;;;;;;;;5070216;28;20079;-60
2022/12/29 01:54:34;;;;;;;5.05;2.38;;;;;;;;;;5065672;28;20071;-60
2022/12/29 01:57:02;;;;;;;4.40;2.50;;;;;;;;;;5068130;28;20115;-59
2022/12/29 01:59:32;;;;;;;3.70;1.80;;;;;;;;;;5071579;28;20517;-59
2022/12/29 02:01:58;;;;;;;4.05;1.90;;;;;;;;;;5065725;28;20055;-60
2022/12/29 02:04:25;;;;;;;4.55;1.95;;;;;;;;;;5110014;22;20060;-60
2022/12/29 02:06:57;;;;;;;3.97;2.33;;;;;;;;;;5041866;28;20056;-60
2022/12/29 02:09:24;;;;;;;3.17;1.98;;;;;;;;;;5056512;28;20132;-59
2022/12/29 02:11:50;;;;;;;2.83;1.75;;;;;;;;;;5065067;28;20116;-60
2022/12/29 02:14:16;;;;;;;3.90;2.00;;;;;;;;;;5054933;28;20036;-59
2022/12/29 02:16:45;;;;;;;2.80;1.80;;;;;;;;;;5062361;28;20052;-60
2022/12/29 02:25:07;;;;;;;3.92;1.58;;;;;;;;;;5055987;22;20683;-59
2022/12/29 02:27:45;;;;;;;2.60;1.90;;;;;;;;;;5032353;28;20486;-59
2022/12/29 02:30:17;;;;;;;2.92;1.85;;;;;;;;;;5031261;28;20049;-60
2022/12/29 02:32:43;;;;;;;5.80;1.95;;;;;;;;;;5050680;28;20511;-59
2022/12/29 02:35:15;;;;;;;2.00;1.20;;;;;;;;;;5049065;28;20045;-60
2022/12/29 02:37:41;;;;;;;2.45;1.50;;;;;;;;;;5032936;28;20441;-60
2022/12/29 02:40:13;;;;;;;1.83;1.15;;;;;;;;;;5049672;28;20465;-60
2022/12/29 02:42:51;;;;;;;3.00;1.70;;;;;;;;;;5032304;28;20053;-61
2022/12/29 02:45:33;;;;;;;2.42;1.50;;;;;;;;;;5048840;28;20060;-61
2022/12/29 02:47:59;;;;;;;3.03;1.45;;;;;;;;;;5031399;28;20049;-60
2022/12/29 02:50:27;;;;;;;2.70;1.90;;;;;;;;;;5050587;28;20107;-61
2022/12/29 02:52:57;;;;;;;3.85;1.52;;;;;;;;;;5050162;28;20041;-60
2022/12/29 02:55:23;;;;;;;4.18;1.33;;;;;;;;;;5049220;28;20033;-61
2022/12/29 02:58:05;;;;;;;2.35;1.23;;;;;;;;;;5050808;28;20056;-61
2022/12/29 03:00:31;;;;;;;3.70;1.33;;;;;;;;;;5032985;28;20409;-61
2022/12/29 03:03:00;;;;;;;3.08;1.17;;;;;;;;;;5031554;28;20080;-61
2022/12/29 03:06:08;;;;;;;2.88;1.10;;;10.50;99.90;;;;;;5031412;28;20049;-61
2022/12/29 03:08:53;;;;;;;3.13;1.17;;;;;;;;;;5043579;28;20347;-61
2022/12/29 03:17:29;;;;;;;4.95;1.35;;;;;;;;;;5041290;28;20072;-60
2022/12/29 03:19:59;;;;;;;3.15;1.10;;;;;;;;;;5038856;28;20106;-60
2022/12/29 03:22:30;;;;;;;5.00;1.40;;;;;;;;;;5031218;28;20048;-60
2022/12/29 03:25:05;;;;;;;;;;;10.30;99.90;;;;;;5031213;28;20502;-61
2022/12/29 03:27:37;;;;;;;2.22;1.30;;;;;;;;;;5052432;28;20058;-61
2022/12/29 03:30:03;;;;;;;4.65;1.55;;;;;;;;;;5052840;28;20083;-61
2022/12/29 03:32:35;;;;;;;2.50;1.20;;;;;;;;;;5053231;28;20051;-61
2022/12/29 03:35:03;;;;;;;6.03;1.30;;;;;;;;;;5034969;28;20045;-62
2022/12/29 03:37:31;;;;;;;5.57;1.20;;;;;;;;;;5034071;28;20045;-61
2022/12/29 03:39:57;;;;;;;6.30;2.28;;;;;;;;;;5051953;28;20045;-62
2022/12/29 03:42:28;;;;;;;4.57;1.35;;;;;;;;;;5034931;28;20056;-61
2022/12/29 03:44:55;;;;;;;2.38;1.00;;;;;;;;;;5052821;28;20055;-60
2022/12/29 03:47:21;;;;;;;7.28;1.30;;;;;;;;;;5034963;28;20048;-61
2022/12/29 03:49:48;;;;;;;4.20;1.35;;;;;;;;;;5020840;28;20056;-61
2022/12/29 03:52:14;;;;;;;3.72;1.20;;;;;;;;;;5034830;28;20040;-60
2022/12/29 03:54:40;;;;;;;3.35;0.98;;;;;;;;;;5051987;28;20037;-62
2022/12/29 03:57:06;;;;;;;5.75;1.08;;;;;;;;;;5050843;28;20045;-61
2022/12/29 03:59:32;;;;;;;4.18;1.00;;;;;;;;;;5051785;28;20505;-61
2022/12/29 04:01:58;;;;;;;2.88;0.70;;;;;;;;;;5050989;28;20044;-61
2022/12/29 04:04:24;;;;;;;2.80;0.82;;;;;;;;;;5034135;28;20077;-60
2022/12/29 04:06:50;;;;;;;2.45;0.75;;;;;;;;;;5034984;28;20086;-60
2022/12/29 04:09:16;;;;;;;4.57;1.02;;;;;;;;;;5035176;28;20080;-61
2022/12/29 04:11:42;;;;;;;5.13;1.30;;;;;;;;;;5051705;28;20111;-61
2022/12/29 04:14:08;;;;;;;4.35;0.98;;;;;;;;;;5053778;28;20124;-60
2022/12/29 04:16:38;;;;;;;3.58;0.98;;;;;;;;;;5034563;28;20045;-61
2022/12/29 04:19:05;;;;;;;6.43;1.20;;;;;;;;;;5026722;28;20050;-60
2022/12/29 04:21:31;;;;;;;8.27;1.25;;;;;;;;;;5043496;28;20409;-61
2022/12/29 04:23:57;;;;;;;1.95;0.65;;;;;;;;;;5050992;28;20489;-61
2022/12/29 04:26:23;;;;;;;2.72;0.70;;;;;;;;;;5037799;28;20041;-61
2022/12/29 04:28:49;;;;;;;4.80;1.20;;;;;;;;;;5003365;28;20057;-60
2022/12/29 04:31:15;;;;;;;6.05;1.15;;;;;;;;;;5053639;28;20051;-60
2022/12/29 04:33:41;;;;;;;7.43;1.20;;;;;;;;;;5051980;28;20045;-61
2022/12/29 04:36:07;;;;;;;3.33;1.17;;;;;;;;;;5052938;28;20073;-60
2022/12/29 04:38:33;;;;;;;4.85;1.00;;;;;;;;;;5052309;28;20501;-60
2022/12/29 04:41:00;;;;;;;6.78;2.28;;;;;;;;;;5051209;28;20498;-61
2022/12/29 04:43:26;;;;;;;10.05;2.08;;;;;;;;;;5053049;28;20048;-61
2022/12/29 04:45:52;;;;;;;8.55;1.30;;;;;;;;;;5053116;28;20043;-60
2022/12/29 04:48:18;;;;;;;8.32;1.80;;;;;;;;;;5034068;28;20037;-61
2022/12/29 04:50:44;;;;;;;5.07;1.27;;;;;;;;;;5034868;28;20116;-60
2022/12/29 04:53:10;;;;;;;10.07;1.40;;;;;;;;;;5052193;28;20572;-60
2022/12/29 04:55:36;;;;;;;7.30;1.65;;;;;;;;;;5049641;28;20517;-60
2022/12/29 04:58:03;;;;;;;8.77;2.15;;;;;;;;;;5052392;28;20045;-61
2022/12/29 05:00:29;;;;;;;5.60;1.60;;;;;;;;;;5034870;28;20123;-60
2022/12/29 05:02:55;;;;;;;5.97;1.40;;;;;;;;;;5050985;28;20037;-60
2022/12/29 05:05:21;;;;;;;7.13;1.50;;;;;;;;;;5034738;28;20102;-61
2022/12/29 05:07:47;;;;;;;13.00;1.52;;;;;;;;;;5051884;28;20049;-61
2022/12/29 05:10:13;;;;;;;9.82;1.33;;;;;;;;;;5052471;28;20047;-61
2022/12/29 05:12:39;;;;;;;5.80;1.35;;;;;;;;;;5033378;28;20516;-62
2022/12/29 05:15:07;;;;;;;8.50;1.63;;;;;;;;;;5052596;28;20564;-60
2022/12/29 05:17:33;;;;;;;8.05;1.60;;;;;;;;;;5035140;28;20132;-60
2022/12/29 05:19:59;;;;;;;5.75;1.20;;;;;;;;;;5051845;28;20233;-61
2022/12/29 05:22:25;;;;;;;11.55;1.92;;;;;;;;;;5050361;28;20045;-61
2022/12/29 05:24:51;;;;;;;13.18;2.53;;;;;;;;;;5033160;28;20110;-61
2022/12/29 05:27:17;;;;;;;10.85;1.65;;;;;;;;;;5052602;28;20055;-61
2022/12/29 05:29:44;;;;;;;8.48;1.40;;;;;;;;;;5050486;28;20052;-61
2022/12/29 05:32:10;;;;;;;8.32;1.20;;;;;;;;;;5034533;28;20045;-61
2022/12/29 05:34:36;;;;;;;9.60;1.70;;;;;;;;;;5051521;28;20045;-61
2022/12/29 05:37:02;;;;;;;8.93;1.55;;;;;;;;;;5051580;28;20047;-61
2022/12/29 05:39:29;;;;;;;6.32;1.25;;;;;;;;;;5050844;28;20570;-61
2022/12/29 05:41:55;;;;;;;8.48;1.50;;;;;;;;;;5049564;28;20048;-61
2022/12/29 05:44:21;;;;;;;10.07;1.35;;;;;;;;;;5050704;28;20041;-61
2022/12/29 05:46:47;;;;;;;8.50;1.30;;;;;;;;;;5050750;28;20072;-61
2022/12/29 05:49:13;;;;;;;13.43;1.40;;;;;;;;;;5050940;28;20045;-61
2022/12/29 05:51:39;;;;;;;12.00;2.25;;;;;;;;;;5033811;28;20103;-62
2022/12/29 05:54:05;;;;;;;8.20;1.55;;;;;;;;;;5051858;28;20095;-59
2022/12/29 05:56:56;;;;;;;10.25;1.85;;;9.30;99.90;;;;;;5109686;22;20076;-60
2022/12/29 05:59:29;;;;;;;6.32;1.23;;;9.60;99.90;;;;;;5093186;22;20977;-61
2022/12/29 06:01:55;;;;;;;15.02;2.40;;;;;;;;;;5018446;22;20063;-60
2022/12/29 06:04:21;;;;;;;9.73;1.77;;;;;;;;;;5051111;28;20049;-60
2022/12/29 06:06:47;;;;;;;7.82;1.30;;;;;;;;;;5050781;28;20052;-60
2022/12/29 06:09:13;;;;;;;6.72;1.67;;;;;;;;;;5046802;28;20045;-60
2022/12/29 06:11:39;;;;;;;4.90;1.42;;;;;;;;;;5038597;28;20405;-62
2022/12/29 06:14:05;;;;;;;9.98;1.88;;;;;;;;;;5042233;28;20041;-60
2022/12/29 06:16:31;;;;;;;13.38;2.20;;;;;;;;;;5050169;28;20072;-60
2022/12/29 06:18:57;;;;;;;6.70;2.03;;;;;;;;;;5041070;28;20041;-60
2022/12/29 06:21:23;;;;;;;9.88;1.50;;;;;;;;;;5051901;28;20055;-60
2022/12/29 06:23:49;;;;;;;11.73;1.77;;;;;;;;;;5049235;28;20048;-60
2022/12/29 06:26:15;;;;;;;8.13;1.30;;;;;;;;;;5051793;28;20042;-59
2022/12/29 06:28:41;;;;;;;7.13;1.63;;;;;;;;;;5049984;28;20047;-60
2022/12/29 06:31:09;;;;;;;9.50;1.98;;;;;;;;;;5046942;28;20125;-60
2022/12/29 06:33:35;;;;;;;14.55;1.88;;;;;;;;;;5048681;28;20084;-60
2022/12/29 06:36:01;;;;;;;15.45;2.20;;;;;;;;;;5036715;28;20103;-60
2022/12/29 06:38:27;;;;;;;10.45;1.80;;;;;;;;;;5051036;28;20048;-60
2022/12/29 06:40:53;;;;;;;13.50;2.25;;;;;;;;;;5051396;28;20060;-60
2022/12/29 06:43:19;;;;;;;9.98;1.83;;;;;;;;;;5049684;28;20132;-60
2022/12/29 06:45:46;;;;;;;13.65;2.35;;;;;;;;;;5049964;28;20041;-60
2022/12/29 06:48:12;;;;;;;6.60;1.35;;;;;;;;;;5051173;28;20064;-60
2022/12/29 06:50:38;;;;;;;11.50;1.80;;;;;;;;;;5051688;28;20049;-60
2022/12/29 06:53:04;;;;;;;13.50;1.77;;;;;;;;;;5042123;28;20104;-61
2022/12/29 06:55:30;;;;;;;19.88;2.47;;;;;;;;;;5047317;28;20083;-60
2022/12/29 06:57:57;;;;;;;12.48;1.55;;;;;;;;;;5048459;28;20457;-60
2022/12/29 07:00:23;;;;;;;8.30;2.25;;;;;;;;;;5049911;28;20052;-60
2022/12/29 07:02:50;;;;;;;10.15;1.90;;;;;;;;;;5052159;28;20088;-60
2022/12/29 07:05:16;;;;;;;11.95;1.80;;;;;;;;;;5050534;28;20482;-61
2022/12/29 07:07:42;;;;;;;14.98;1.80;;;;;;;;;;5034167;28;20052;-61
2022/12/29 07:10:08;;;;;;;4.10;1.02;;;;;;;;;;5035051;28;20426;-61
2022/12/29 07:12:34;;;;;;;10.45;1.75;;;;;;;;;;5033712;28;20041;-61
2022/12/29 07:15:00;;;;;;;9.30;1.90;;;;;;;;;;5050894;28;20045;-61
2022/12/29 07:17:26;;;;;;;4.97;1.70;;;;;;;;;;5054575;28;20504;-61
2022/12/29 07:19:52;;;;;;;11.23;2.00;;;;;;;;;;5054686;28;20041;-61
2022/12/29 07:22:18;;;;;;;8.68;1.38;;;;;;;;;;5055007;28;20096;-61
2022/12/29 07:24:44;;;;;;;13.00;2.83;;;;;;;;;;5024691;28;20093;-62
2022/12/29 07:27:10;;;;;;;12.82;1.92;;;;;;;;;;5050595;28;20512;-61
2022/12/29 07:29:39;;;;;;;9.57;2.08;;;;;;;;;;5054831;28;20044;-61
2022/12/29 07:32:05;;;;;;;11.55;2.08;;;;;;;;;;5054376;28;20501;-61
2022/12/29 07:34:31;;;;;;;8.68;2.05;;;;;;;;;;5037113;28;20052;-61
2022/12/29 07:36:58;;;;;;;5.65;1.38;;;;;;;;;;5045678;28;20128;-61
2022/12/29 07:39:24;;;;;;;13.13;2.10;;;;;;;;;;5054683;28;20052;-60
2022/12/29 07:41:50;;;;;;;15.68;1.92;;;;;;;;;;5044039;28;20056;-61
2022/12/29 07:44:16;;;;;;;10.55;1.95;;;;;;;;;;5020377;28;20060;-60
2022/12/29 07:46:42;;;;;;;11.00;2.38;;;;;;;;;;5027542;28;20481;-62
2022/12/29 07:49:08;;;;;;;11.75;2.50;;;;;;;;;;5030724;28;20049;-62
2022/12/29 07:51:34;;;;;;;8.88;1.83;;;;;;;;;;5034203;28;20060;-61
2022/12/29 07:54:00;;;;;;;12.75;2.47;;;;;;;;;;5051221;28;20438;-61
2022/12/29 07:56:27;;;;;;;9.93;1.77;;;;;;;;;;5037555;28;20052;-61
2022/12/29 07:58:53;;;;;;;12.13;1.95;;;;;;;;;;5033839;28;20131;-62
2022/12/29 08:01:19;;;;;;;11.98;1.75;;;;;;;;;;5053455;28;20060;-61
2022/12/29 08:03:45;;;;;;;10.60;2.13;;;;;;;;;;5033026;28;20080;-61
2022/12/29 08:06:12;;;;;;;13.23;2.40;;;;;;;;;;5023155;28;20045;-61
2022/12/29 08:08:38;;;;;;;15.20;2.22;;;;;;;;;;5054188;28;20053;-61
2022/12/29 08:11:04;;;;;;;18.67;2.58;;;;;;;;;;5051276;28;20136;-61
2022/12/29 08:13:30;;;;;;;20.40;2.78;;;;;;;;;;5038684;28;20068;-61
2022/12/29 08:15:58;;;;;;;16.70;3.35;;;;;;;;;;5033423;28;20037;-61
2022/12/29 08:18:24;;;;;;;14.52;1.73;;;;;;;;;;5033040;28;20390;-60
2022/12/29 08:20:50;;;;;;;20.27;4.93;;;;;;;;;;5052312;28;20103;-61
2022/12/29 08:23:16;;;;;;;15.73;2.72;;;;;;;;;;5051287;28;20040;-60
2022/12/29 08:25:42;;;;;;;13.88;2.45;;;;;;;;;;5052183;28;20509;-60
2022/12/29 08:28:08;;;;;;;16.77;3.92;;;;;;;;;;5053197;28;20053;-60
2022/12/29 08:30:36;;;;;;;16.77;2.25;;;;;;;;;;5031965;28;20067;-61
2022/12/29 08:33:02;;;;;;;16.45;2.33;;;;;;;;;;5049508;28;20124;-60
2022/12/29 08:35:28;;;;;;;15.75;2.47;;;;;;;;;;5053259;28;20037;-61
2022/12/29 08:37:54;;;;;;;17.15;3.22;;;;;;;;;;5052846;28;20102;-61
2022/12/29 08:40:20;;;;;;;25.95;4.72;;;;;;;;;;5053223;28;20045;-60
2022/12/29 08:42:46;;;;;;;16.65;3.65;;;;;;;;;;5051858;28;20055;-61
2022/12/29 08:45:12;;;;;;;17.55;2.80;;;;;;;;;;5052845;28;20045;-61
2022/12/29 08:47:39;;;;;;;13.32;2.03;;;;;;;;;;5053081;28;20045;-61
2022/12/29 08:50:05;;;;;;;10.80;1.85;;;;;;;;;;5030964;28;20111;-60
2022/12/29 08:52:31;;;;;;;12.38;2.88;;;;;;;;;;5050581;28;20049;-61
2022/12/29 08:54:57;;;;;;;18.95;4.15;;;;;;;;;;5017055;28;20048;-61
2022/12/29 08:57:23;;;;;;;21.83;4.07;;;;;;;;;;5052263;28;20048;-60
2022/12/29 08:59:49;;;;;;;19.48;3.03;;;;;;;;;;5051516;28;20060;-60
2022/12/29 09:02:15;;;;;;;18.85;2.50;;;;;;;;;;5027697;28;20524;-60
2022/12/29 09:04:41;;;;;;;20.98;4.63;;;;;;;;;;5051443;28;20108;-61
2022/12/29 09:07:07;;;;;;;14.02;1.83;;;;;;;;;;5052469;28;20056;-60
2022/12/29 09:09:33;;;;;;;12.43;1.75;;;;;;;;;;5052626;28;20045;-61
2022/12/29 09:11:59;;;;;;;13.02;1.88;;;;;;;;;;5051814;28;20048;-61
2022/12/29 09:14:26;;;;;;;18.80;4.70;;;;;;;;;;5047765;22;20148;-61
2022/12/29 09:19:37;;;;;;;12.98;2.55;;;;;;;;;;5067394;28;20052;-61
2022/12/29 09:22:03;;;;;;;15.27;2.08;;;;;;;;;;5052596;28;20048;-61
2022/12/29 09:24:29;;;;;;;15.63;1.92;;;;;;;;;;5074060;28;20047;-61
2022/12/29 09:26:55;;;;;;;8.65;1.80;;;;;;;;;;5077561;28;20131;-61
2022/12/29 09:32:00;;;;;;;12.43;2.10;;;;;;;;;;5072316;22;21067;-61
2022/12/29 09:34:26;;;;;;;14.77;2.22;;;;;;;;;;5054860;28;20053;-62
2022/12/29 09:36:52;;;;;;;10.20;1.75;;;;;;;;;;5054211;28;20496;-62
2022/12/29 09:39:18;;;;;;;10.60;1.88;;;;;;;;;;5054704;28;20086;-62
2022/12/29 09:42:38;;;;;;;11.52;2.30;;;9.00;99.90;;;;;;5071595;28;20052;-62
2022/12/29 09:45:10;;;;;;;14.65;3.08;;;;;;;;;;5039492;28;20435;-62
2022/12/29 09:47:36;;;;;;;14.48;2.13;;;;;;;;;;5071679;28;20053;-61
2022/12/29 09:50:06;;;;;;;19.83;5.00;;;;;;;;;;5058868;28;20045;-61
2022/12/29 09:53:12;;;;;;;23.13;5.88;;;8.90;99.90;;;;;;5054528;28;20048;-61
2022/12/29 09:55:39;;;;;;;28.45;6.20;;;;;;;;;;5033983;28;20056;-62
2022/12/29 09:58:14;;;;;;;22.65;5.30;;;;;;;;;;5054104;28;20119;-61
2022/12/29 10:01:01;;;;;;;17.10;3.40;;;9.00;99.90;;;;;;5065061;28;20388;-63
2022/12/29 10:03:32;;;;;;;13.52;3.10;;;;;;;;;;5092311;28;20079;-61
2022/12/29 10:06:20;;;;;;;17.95;4.35;;;9.30;99.90;;;;;;5091580;28;20271;-61
2022/12/29 10:09:09;;;;;;;12.32;2.72;;;;;;;;;;5071740;28;20149;-62
2022/12/29 10:11:35;;;;;;;12.02;2.80;;;;;;;;;;5061047;28;20067;-62
2022/12/29 10:14:19;;;;;;;20.50;4.28;;;;;;;;;;5088809;28;20048;-62
2022/12/29 10:16:45;;;;;;;15.05;3.30;;;;;;;;;;5056207;28;20428;-61
2022/12/29 10:19:31;;;;;;;19.48;2.33;;;;;;;;;;5074110;28;20079;-62
2022/12/29 10:22:16;;;;;;;11.80;2.90;;;;;;;;;;5091478;28;20451;-62
2022/12/29 10:24:45;;;;;;;9.60;1.98;;;;;;;;;;5085755;28;20032;-63
2022/12/29 10:27:15;;;;;;;11.73;1.80;;;;;;;;;;5071384;28;20459;-62
2022/12/29 10:29:45;;;;;;;9.65;2.25;;;;;;;;;;5091410;28;20044;-62
2022/12/29 10:32:23;;;;;;;13.27;3.08;;;;;;;;;;5091460;28;20121;-62
2022/12/29 10:34:52;;;;;;;15.07;2.85;;;;;;;;;;5090981;28;20044;-62
2022/12/29 10:37:18;;;;;;;14.70;2.03;;;;;;;;;;5091239;28;20098;-62
2022/12/29 10:39:51;;;;;;;17.13;3.33;;;;;;;;;;5095514;28;20047;-62
2022/12/29 10:42:27;;;;;;;12.88;2.85;;;;;;;;;;5096003;28;20051;-62
2022/12/29 10:44:54;;;;;;;18.75;3.08;;;;;;;;;;5095419;28;20036;-62
2022/12/29 10:47:23;;;;;;;8.40;2.03;;;;;;;;;;5091636;28;20077;-62
2022/12/29 10:49:49;;;;;;;15.98;2.80;;;;;;;;;;5095334;28;20454;-63
2022/12/29 10:52:17;;;;;;;17.02;3.80;;;;;;;;;;5095871;28;20048;-63
2022/12/29 10:54:51;;;;;;;17.17;2.47;;;;;;;;;;5095017;28;20408;-63
2022/12/29 10:57:25;;;;;;;13.63;3.35;;;;;;;;;;5092811;28;20052;-63
2022/12/29 10:59:51;;;;;;;18.02;3.10;;;;;;;;;;5095093;28;20051;-63
2022/12/29 11:02:41;;;;;;;19.42;4.03;;;8.70;99.90;;;;;;5077246;28;20091;-63
2022/12/29 11:05:22;;;;;;;14.90;2.17;;;;;;;;;;5094982;28;20123;-63
2022/12/29 11:07:50;;;;;;;14.43;2.17;;;;;;;;;;5093340;28;20503;-62
2022/12/29 11:10:36;;;;;;;22.65;3.63;;;;;;;;;;5076650;28;20052;-62
2022/12/29 11:13:20;;;;;;;18.90;2.78;;;;;;;;;;5072195;28;20047;-65
2022/12/29 11:15:50;;;;;;;14.00;2.33;;;;;;;;;;5089787;28;20542;-63
2022/12/29 11:18:23;;;;;;;19.13;4.75;;;;;;;;;;5094152;28;20040;-62
2022/12/29 11:20:51;;;;;;;21.33;3.28;;;;;;;;;;5094646;28;20047;-63
2022/12/29 11:23:23;;;;;;;23.98;3.20;;;;;;;;;;5092930;28;20071;-65
2022/12/29 11:26:13;;;;;;;17.70;3.08;;;;;;;;;;5094248;28;20055;-63
2022/12/29 11:28:40;;;;;;;22.92;2.97;;;;;;;;;;5070248;28;20572;-65
2022/12/29 11:31:07;;;;;;;20.70;3.60;;;;;;;;;;5093065;28;20071;-62
2022/12/29 11:33:34;;;;;;;21.30;3.33;;;;;;;;;;5090270;28;20060;-62
2022/12/29 11:36:05;;;;;;;31.08;4.00;;;;;;;;;;5094128;28;20051;-62
2022/12/29 11:38:36;;;;;;;20.88;3.70;;;;;;;;;;5076373;28;20098;-63
2022/12/29 11:41:03;;;;;;;17.92;3.28;;;;;;;;;;5093374;28;20047;-62
2022/12/29 11:43:34;;;;;;;23.75;5.32;;;;;;;;;;5091272;28;20117;-62
2022/12/29 11:46:03;;;;;;;18.30;3.35;;;;;;;;;;5088426;28;20079;-63
2022/12/29 11:48:30;;;;;;;39.00;6.68;;;;;;;;;;5093474;28;20443;-62
2022/12/29 11:50:59;;;;;;;15.65;3.05;;;;;;;;;;5073081;28;20145;-62
2022/12/29 11:53:25;;;;;;;23.30;4.68;;;;;;;;;;5092245;28;20044;-62
2022/12/29 11:55:55;;;;;;;18.83;3.63;;;;;;;;;;5092611;28;20044;-62
2022/12/29 11:58:22;;;;;;;21.02;3.08;;;;;;;;;;5090031;28;20107;-63
2022/12/29 12:00:51;;;;;;;25.73;4.32;;;;;;;;;;5076121;28;20047;-62
2022/12/29 12:03:19;;;;;;;31.88;6.15;;;;;;;;;;5093129;28;20063;-62
2022/12/29 12:05:52;;;;;;;29.67;6.78;;;;;;;;;;5074868;28;20404;-63
2022/12/29 12:08:23;;;;;;;30.08;5.43;;;;;;;;;;5086993;28;20512;-63
2022/12/29 12:11:11;;;;;;;27.55;4.13;;;9.70;99.90;;;;;;5056058;28;20041;-62
2022/12/29 12:13:41;;;;;;;18.73;4.32;;;;;;;;;;5089431;28;20047;-62
2022/12/29 12:16:13;;;;;;;18.13;6.65;;;;;;;;;;5092451;28;20059;-63
2022/12/29 12:18:46;;;;;;;21.50;4.65;;;;;;;;;;5074650;28;20504;-64
2022/12/29 12:21:19;;;;;;;16.02;4.47;;;;;;;;;;5074655;28;20056;-63
2022/12/29 12:23:47;;;;;;;20.10;3.53;;;;;;;;;;5086881;28;20093;-62
2022/12/29 12:26:22;;;;;;;22.15;4.75;;;;;;;;;;5065381;28;20060;-62
2022/12/29 12:29:00;;;;;;;14.00;2.83;;;;;;;;;;5061856;28;20090;-62
2022/12/29 12:31:41;;;;;;;18.27;3.08;;;;;;;;;;5063903;28;20048;-62
2022/12/29 12:34:19;;;;;;;12.73;2.30;;;;;;;;;;5065208;28;20148;-62
2022/12/29 12:37:00;;;;;;;16.55;3.53;;;;;;;;;;5061742;28;20386;-62
2022/12/29 12:39:32;;;;;;;20.85;3.25;;;;;;;;;;5050118;28;20044;-62
2022/12/29 12:42:07;;;;;;;16.90;2.92;;;;;;;;;;5058612;28;20041;-63
2022/12/29 12:44:33;;;;;;;17.58;2.00;;;;;;;;;;5048174;28;20485;-62
2022/12/29 12:46:59;;;;;;;20.80;2.40;;;;;;;;;;5028755;28;20062;-62
2022/12/29 12:49:25;;;;;;;17.52;2.90;;;;;;;;;;5063855;28;20040;-63
2022/12/29 12:51:57;;;;;;;20.75;3.65;;;;;;;;;;5061748;28;20045;-63
2022/12/29 12:55:17;;;;;;;12.82;2.22;;;10.60;99.90;;;;;;5059858;28;20102;-62
2022/12/29 12:58:19;;;;;;;15.23;2.15;;;;;;;;;;4990153;28;20555;-61
2022/12/29 13:01:03;;;;;;;15.63;2.53;;;;;;;;;;4952647;28;20050;-62
2022/12/29 13:03:43;;;;;;;10.57;2.22;;;;;;;;;;4988896;28;20082;-62
2022/12/29 13:06:25;;;;;;;11.55;2.70;;;;;;;;;;5086440;22;20056;-61
2022/12/29 13:08:54;;;;;;;12.18;2.33;;;;;;;;;;5064075;28;20101;-62
2022/12/29 13:11:29;;;;;;;8.73;1.83;;;;;;;;;;5086570;28;20488;-62
2022/12/29 13:13:55;;;;;;;22.10;2.40;;;;;;;;;;5070675;28;20127;-62
2022/12/29 13:16:21;;;;;;;11.15;2.13;;;;;;;;;;5075212;28;20040;-62
2022/12/29 13:18:59;;;;;;;10.88;1.65;;;;;;;;;;5088356;28;20056;-63
2022/12/29 13:21:47;;;;;;;11.70;1.98;;;10.10;99.90;;;;;;5085545;22;20044;-62
2022/12/29 13:24:19;;;;;;;11.90;2.33;;;;;;;;;;5091873;22;20109;-61
2022/12/29 13:26:55;;;;;;;9.40;2.63;;;;;;;;;;5072507;28;20385;-62
2022/12/29 13:29:31;;;;;;;13.02;2.45;;;;;;;;;;5092498;28;20455;-61
2022/12/29 13:32:15;;;;;;;12.35;3.28;;;;;;;;;;5091687;28;20044;-62
2022/12/29 13:34:49;;;;;;;13.60;3.55;;;;;;;;;;5083486;28;20037;-62
2022/12/29 13:37:21;;;;;;;18.65;2.95;;;;;;;;;;5071159;28;20055;-62
2022/12/29 13:39:55;;;;;;;15.70;2.45;;;;;;;;;;5092096;28;20040;-61
2022/12/29 13:42:22;;;;;;;18.20;2.80;;;;;;;;;;5090253;28;20069;-62
2022/12/29 13:44:52;;;;;;;10.32;1.73;;;;;;;;;;5072002;28;20047;-62
2022/12/29 13:47:38;;;;;;;15.82;3.10;;;;;;;;;;5074410;28;20119;-61
2022/12/29 13:50:07;;;;;;;16.80;3.20;;;;;;;;;;5071458;28;20058;-61
2022/12/29 13:52:37;;;;;;;17.08;2.80;;;;;;;;;;5092185;28;20128;-61
2022/12/29 13:55:06;;;;;;;11.55;1.95;;;;;;;;;;5071759;28;20044;-62
2022/12/29 13:57:39;;;;;;;15.45;2.53;;;;;;;;;;5072129;28;20450;-62
2022/12/29 14:00:16;;;;;;;12.85;2.28;;;;;;;;;;5081164;28;20044;-62
2022/12/29 14:02:42;;;;;;;16.70;4.25;;;;;;;;;;5073617;28;20445;-63
2022/12/29 14:05:31;;;;;;;11.93;3.60;;;;;;;;;;5089029;28;20079;-62
2022/12/29 14:07:59;;;;;;;16.90;2.53;;;;;;;;;;5050617;28;20081;-62
2022/12/29 14:10:36;;;;;;;17.83;3.00;;;;;;;;;;5090708;28;20120;-61
2022/12/29 14:13:19;;;;;;;11.70;1.55;;;;;;;;;;5090929;28;20097;-61
2022/12/29 14:15:47;;;;;;;16.02;2.33;;;;;;;;;;5088837;28;20054;-62
2022/12/29 14:18:13;;;;;;;11.95;2.33;;;;;;;;;;5056694;28;20051;-62
2022/12/29 14:20:47;;;;;;;10.80;2.00;;;;;;;;;;5065387;28;20036;-63
2022/12/29 14:23:13;;;;;;;14.43;2.53;;;;;;;;;;5072389;28;20389;-62
2022/12/29 14:25:59;;;;;;;17.52;2.63;;;;;;;;;;5091442;28;20404;-63
2022/12/29 14:28:29;;;;;;;11.52;2.60;;;;;;;;;;5071648;28;20093;-62
2022/12/29 14:30:57;;;;;;;12.98;1.75;;;;;;;;;;5089988;28;20051;-62
2022/12/29 14:33:26;;;;;;;13.05;2.28;;;;;;;;;;5089286;28;20047;-62
2022/12/29 14:35:52;;;;;;;10.45;1.80;;;;;;;;;;5090591;28;20140;-62
2022/12/29 14:38:23;;;;;;;12.35;2.47;;;;;;;;;;5090592;28;20101;-62
2022/12/29 14:40:49;;;;;;;14.52;1.35;;;;;;;;;;5091010;28;20040;-62
2022/12/29 14:43:20;;;;;;;12.30;1.85;;;;;;;;;;5091234;28;20048;-62
2022/12/29 14:45:52;;;;;;;4.65;1.30;;;;;;;;;;5089474;28;20056;-62
2022/12/29 14:48:32;;;;;;;7.28;1.38;;;;;;;;;;5091767;28;20044;-62
2022/12/29 14:50:58;;;;;;;11.10;1.80;;;;;;;;;;5073012;28;20044;-62
2022/12/29 14:53:51;;;;;;;7.47;2.50;;;9.20;99.90;;;;;;5071654;28;20048;-62
2022/12/29 14:56:20;;;;;;;11.15;1.48;;;;;;;;;;5091250;28;20446;-62
2022/12/29 14:58:49;;;;;;;13.50;1.98;;;;;;;;;;5056381;28;20105;-62
2022/12/29 15:01:16;;;;;;;14.40;1.58;;;;;;;;;;5090575;28;20043;-62
2022/12/29 15:03:47;;;;;;;11.75;1.88;;;;;;;;;;5066036;28;20060;-61
2022/12/29 15:06:18;;;;;;;10.43;2.35;;;;;;;;;;5090970;28;20048;-61
2022/12/29 15:08:51;;;;;;;8.93;1.85;;;;;;;;;;5089778;28;20056;-62
2022/12/29 15:11:21;;;;;;;9.98;2.13;;;;;;;;;;5086306;28;20435;-62
2022/12/29 15:13:50;;;;;;;13.43;2.28;;;;;;;;;;5089757;28;20123;-61
2022/12/29 15:16:25;;;;;;;12.40;2.42;;;;;;;;;;5086146;28;20040;-62
2022/12/29 15:18:52;;;;;;;12.65;3.60;;;;;;;;;;5089800;28;20036;-61
2022/12/29 15:21:20;;;;;;;12.38;1.88;;;;;;;;;;5071866;28;20043;-62
2022/12/29 15:23:47;;;;;;;12.80;2.03;;;;;;;;;;5063032;28;20397;-61
2022/12/29 15:26:20;;;;;;;11.02;1.98;;;;;;;;;;5094465;28;20114;-61
2022/12/29 15:28:47;;;;;;;14.93;2.70;;;;;;;;;;5089558;28;20083;-63